createdAt,value
2022-12-20T00:00:52.420Z,100328.78
2022-12-20T00:01:56.437Z,100329.66
2022-12-20T00:03:00.535Z,100332.25
2022-12-20T00:04:13.125Z,100329.63
2022-12-20T00:05:16.827Z,100322.72
2022-12-20T00:06:22.271Z,100325.28
2022-12-20T00:07:26.003Z,100322.69
2022-12-20T00:08:30.075Z,100325.31
2022-12-20T00:09:33.659Z,100319.22
2022-12-20T00:10:43.736Z,100327.91
2022-12-20T00:11:48.071Z,100330.53
2022-12-20T00:12:52.003Z,100331.38
2022-12-20T00:13:56.415Z,100327.03
2022-12-20T00:15:00.283Z,100335.69
2022-12-20T00:16:15.246Z,100337.44
2022-12-20T00:17:18.988Z,100333.97
2022-12-20T00:18:23.210Z,100336.56
2022-12-20T00:19:27.047Z,100337.44
2022-12-20T00:20:31.468Z,100341.75
2022-12-20T00:21:36.513Z,100330.47
2022-12-20T00:22:40.538Z,100333.94
2022-12-20T00:23:44.307Z,100340.00
2022-12-20T00:24:48.720Z,100329.59
2022-12-20T00:25:52.587Z,100335.66
2022-12-20T00:26:58.751Z,100336.53
2022-12-20T00:28:06.599Z,100333.91
2022-12-20T00:29:10.810Z,100328.69
2022-12-20T00:30:16.282Z,100339.13
2022-12-20T00:31:23.344Z,100328.72
2022-12-20T00:32:28.161Z,100324.38
2022-12-20T00:33:35.159Z,100331.31
2022-12-20T00:34:38.973Z,100333.91
2022-12-20T00:35:43.540Z,100337.41
2022-12-20T00:36:47.515Z,100340.00
2022-12-20T00:37:51.135Z,100335.66
2022-12-20T00:38:57.567Z,100338.22
2022-12-20T00:40:01.335Z,100333.88
2022-12-20T00:41:15.791Z,100345.19
2022-12-20T00:42:20.369Z,100335.63
2022-12-20T00:43:24.736Z,100339.09
2022-12-20T00:44:35.143Z,100337.38
2022-12-20T00:45:39.487Z,100338.22
2022-12-20T00:46:43.750Z,100334.75
2022-12-20T00:47:47.310Z,100339.94
2022-12-20T00:48:52.452Z,100344.25
2022-12-20T00:49:56.429Z,100337.34
2022-12-20T00:51:13.523Z,100340.78
2022-12-20T00:52:17.871Z,100346.84
2022-12-20T00:53:26.348Z,100339.06
2022-12-20T00:54:30.801Z,100333.81
2022-12-20T00:55:34.916Z,100338.16
2022-12-20T00:56:42.225Z,100333.81
2022-12-20T00:57:48.933Z,100337.25
2022-12-20T00:58:53.595Z,100330.34
2022-12-20T00:59:57.416Z,100343.34
2022-12-20T01:01:01.880Z,100337.25
2022-12-20T01:02:06.101Z,100333.78
2022-12-20T01:03:10.851Z,100335.50
2022-12-20T01:04:15.217Z,100326.81
2022-12-20T01:05:22.119Z,100332.91
2022-12-20T01:06:26.748Z,100321.59
2022-12-20T01:07:30.628Z,100330.28
2022-12-20T01:08:34.728Z,100324.16
2022-12-20T01:09:39.714Z,100324.19
2022-12-20T01:10:43.246Z,100324.16
2022-12-20T01:11:46.840Z,100323.28
2022-12-20T01:12:51.047Z,100330.22
2022-12-20T01:13:57.838Z,100331.94
2022-12-20T01:15:01.506Z,100330.22
2022-12-20T01:16:16.326Z,100318.03
2022-12-20T01:17:20.314Z,100321.53
2022-12-20T01:18:23.959Z,100312.81
2022-12-20T01:19:27.791Z,100314.53
2022-12-20T01:20:31.484Z,100305.84
2022-12-20T01:21:36.265Z,100317.16
2022-12-20T01:22:45.552Z,100317.13
2022-12-20T01:23:52.649Z,100312.78
2022-12-20T01:24:56.570Z,100312.78
2022-12-20T01:26:02.745Z,100309.28
2022-12-20T01:27:06.727Z,100305.84
2022-12-20T01:28:10.401Z,100313.66
2022-12-20T01:29:15.115Z,100300.59
2022-12-20T01:30:19.062Z,100298.84
2022-12-20T01:31:24.518Z,100302.34
2022-12-20T01:32:28.233Z,100300.59
2022-12-20T01:33:32.097Z,100301.44
2022-12-20T01:34:35.818Z,100307.50
2022-12-20T01:35:39.473Z,100297.97
2022-12-20T01:36:43.222Z,100302.31
2022-12-20T01:37:46.955Z,100293.63
2022-12-20T01:38:51.267Z,100294.47
2022-12-20T01:39:54.803Z,100296.19
2022-12-20T01:40:59.999Z,100292.72
2022-12-20T01:42:05.379Z,100285.72
2022-12-20T01:43:15.728Z,100290.09
2022-12-20T01:44:19.623Z,100284.88
2022-12-20T01:45:31.269Z,100284.88
2022-12-20T01:46:39.749Z,100281.38
2022-12-20T01:47:43.708Z,100284.88
2022-12-20T01:49:08.379Z,100278.78
2022-12-20T01:50:12.457Z,100278.78
2022-12-20T01:51:17.412Z,100286.63
2022-12-20T01:52:36.279Z,100278.81
2022-12-20T01:53:40.384Z,100283.19
2022-12-20T01:55:11.129Z,100280.56
2022-12-20T01:56:15.069Z,100281.41
2022-12-20T01:57:29.906Z,100269.31
2022-12-20T01:58:36.014Z,100275.44
2022-12-20T01:59:47.185Z,100276.34
2022-12-20T02:00:50.853Z,100282.41
2022-12-20T02:02:02.260Z,100277.22
2022-12-20T02:03:11.619Z,100274.59
2022-12-20T02:04:15.236Z,100275.50
2022-12-20T02:05:23.938Z,100272.03
2022-12-20T02:06:28.287Z,100277.25
2022-12-20T02:07:36.254Z,100268.53
2022-12-20T02:08:40.011Z,100278.94
2022-12-20T02:09:44.556Z,100281.53
2022-12-20T02:12:00.665Z,100293.75
2022-12-20T02:13:28.973Z,100295.47
2022-12-20T02:14:45.080Z,100298.06
2022-12-20T02:16:00.445Z,100292.84
2022-12-20T02:17:57.210Z,100299.75
2022-12-20T02:19:31.255Z,100295.41
2022-12-20T02:21:23.654Z,100290.19
2022-12-20T02:22:57.898Z,100289.28
2022-12-20T02:24:10.048Z,100281.44
2022-12-20T02:25:28.496Z,100280.59
2022-12-20T02:27:18.589Z,100276.22
2022-12-20T02:29:01.869Z,100270.16
2022-12-20T02:30:22.652Z,100263.19
2022-12-20T02:31:58.109Z,100253.66
2022-12-20T02:33:07.682Z,100245.88
2022-12-20T02:34:12.915Z,100246.78
2022-12-20T02:35:26.175Z,100252.88
2022-12-20T02:36:30.368Z,100252.81
2022-12-20T02:37:34.363Z,100264.09
2022-12-20T02:38:39.081Z,100257.97
2022-12-20T02:39:46.376Z,100261.41
2022-12-20T02:40:54.319Z,100251.84
2022-12-20T02:42:27.129Z,100259.66
2022-12-20T02:43:52.940Z,100246.59
2022-12-20T02:45:18.341Z,100243.13
2022-12-20T02:46:26.733Z,100245.72
2022-12-20T02:48:05.312Z,100250.03
2022-12-20T02:49:21.391Z,100243.97
2022-12-20T02:50:36.453Z,100239.59
2022-12-20T02:51:45.421Z,100239.56
2022-12-20T02:52:51.157Z,100240.41
2022-12-20T02:53:55.787Z,100241.28
2022-12-20T02:55:01.162Z,100249.09
2022-12-20T02:56:28.016Z,100243.00
2022-12-20T02:58:02.878Z,100244.78
2022-12-20T02:59:20.038Z,100242.09
2022-12-20T03:00:24.492Z,100232.53
2022-12-20T03:02:03.986Z,100235.13
2022-12-20T03:03:23.298Z,100240.38
2022-12-20T03:04:35.508Z,100242.09
2022-12-20T03:05:49.127Z,100249.03
2022-12-20T03:07:12.885Z,100258.56
2022-12-20T03:08:17.910Z,100247.22
2022-12-20T03:09:21.526Z,100251.59
2022-12-20T03:10:25.330Z,100252.41
2022-12-20T03:11:29.193Z,100255.88
2022-12-20T03:12:32.817Z,100251.47
2022-12-20T03:13:36.416Z,100257.56
2022-12-20T03:14:40.724Z,100259.28
2022-12-20T03:15:44.774Z,100255.78
2022-12-20T03:16:48.750Z,100260.97
2022-12-20T03:17:52.476Z,100245.31
2022-12-20T03:18:56.066Z,100243.56
2022-12-20T03:19:59.778Z,100236.59
2022-12-20T03:21:04.019Z,100235.69
2022-12-20T03:22:13.072Z,100232.19
2022-12-20T03:23:16.905Z,100241.75
2022-12-20T03:24:23.295Z,100230.41
2022-12-20T03:25:27.955Z,100226.91
2022-12-20T03:26:32.027Z,100231.25
2022-12-20T03:27:35.813Z,100221.66
2022-12-20T03:28:39.773Z,100235.59
2022-12-20T03:29:45.048Z,100239.06
2022-12-20T03:30:49.447Z,100240.78
2022-12-20T03:31:53.613Z,100240.78
2022-12-20T03:32:58.029Z,100236.44
2022-12-20T03:34:02.029Z,100241.66
2022-12-20T03:35:06.749Z,100235.56
2022-12-20T03:36:10.676Z,100222.53
2022-12-20T03:37:14.452Z,100228.56
2022-12-20T03:38:18.165Z,100234.63
2022-12-20T03:39:22.437Z,100223.31
2022-12-20T03:40:26.525Z,100225.06
2022-12-20T03:41:30.474Z,100236.38
2022-12-20T03:42:34.549Z,100232.03
2022-12-20T03:43:38.335Z,100238.13
2022-12-20T03:44:42.625Z,100238.09
2022-12-20T03:45:46.487Z,100240.72
2022-12-20T03:46:50.301Z,100237.22
2022-12-20T03:47:54.041Z,100230.28
2022-12-20T03:48:57.855Z,100225.88
2022-12-20T03:50:01.643Z,100234.59
2022-12-20T03:51:05.737Z,100230.22
2022-12-20T03:52:13.228Z,100226.78
2022-12-20T03:53:16.899Z,100220.66
2022-12-20T03:54:21.205Z,100218.91
2022-12-20T03:55:25.052Z,100224.16
2022-12-20T03:56:28.876Z,100216.34
2022-12-20T03:57:32.523Z,100229.38
2022-12-20T03:58:36.178Z,100232.84
2022-12-20T03:59:40.348Z,100221.53
2022-12-20T04:00:44.139Z,100215.41
2022-12-20T04:01:48.248Z,100215.41
2022-12-20T04:02:52.623Z,100215.38
2022-12-20T04:03:57.504Z,100219.72
2022-12-20T04:05:01.270Z,100207.50
2022-12-20T04:06:05.430Z,100206.63
2022-12-20T04:07:09.534Z,100198.78
2022-12-20T04:08:13.210Z,100197.03
2022-12-20T04:09:16.967Z,100202.25
2022-12-20T04:10:24.035Z,100215.28
2022-12-20T04:11:28.096Z,100214.41
2022-12-20T04:12:31.754Z,100211.78
2022-12-20T04:13:35.547Z,100214.38
2022-12-20T04:14:39.073Z,100206.53
2022-12-20T04:15:42.775Z,100203.03
2022-12-20T04:16:46.984Z,100202.19
2022-12-20T04:17:50.864Z,100201.31
2022-12-20T04:18:55.015Z,100203.91
2022-12-20T04:19:58.683Z,100208.25
2022-12-20T04:21:09.956Z,100189.13
2022-12-20T04:22:14.196Z,100198.69
2022-12-20T04:23:18.172Z,100189.13
2022-12-20T04:24:22.551Z,100192.63
2022-12-20T04:25:26.211Z,100190.91
2022-12-20T04:26:30.541Z,100192.66
2022-12-20T04:27:34.300Z,100188.31
2022-12-20T04:28:37.922Z,100190.09
2022-12-20T04:29:41.576Z,100195.31
2022-12-20T04:30:45.479Z,100193.56
2022-12-20T04:31:49.630Z,100197.06
2022-12-20T04:32:54.973Z,100200.56
2022-12-20T04:33:58.953Z,100192.72
2022-12-20T04:35:04.194Z,100193.56
2022-12-20T04:36:08.132Z,100199.66
2022-12-20T04:37:12.249Z,100197.13
2022-12-20T04:38:16.449Z,100188.44
2022-12-20T04:39:20.190Z,100184.06
2022-12-20T04:40:24.021Z,100189.28
2022-12-20T04:41:27.721Z,100196.28
2022-12-20T04:42:31.729Z,100191.91
2022-12-20T04:43:35.396Z,100183.22
2022-12-20T04:44:39.169Z,100191.03
2022-12-20T04:45:44.287Z,100190.16
2022-12-20T04:46:47.930Z,100186.69
2022-12-20T04:47:51.757Z,100180.63
2022-12-20T04:49:07.415Z,100183.22
2022-12-20T04:50:11.521Z,100189.34
2022-12-20T04:51:16.686Z,100186.72
2022-12-20T04:52:45.551Z,100191.13
2022-12-20T04:53:52.645Z,100189.38
2022-12-20T04:54:56.416Z,100186.78
2022-12-20T04:56:00.738Z,100187.63
2022-12-20T04:57:07.998Z,100198.94
2022-12-20T04:58:11.834Z,100191.13
2022-12-20T04:59:15.571Z,100204.16
2022-12-20T05:00:19.919Z,100200.72
2022-12-20T05:01:24.424Z,100196.41
2022-12-20T05:02:28.279Z,100196.41
2022-12-20T05:03:32.190Z,100192.06
2022-12-20T05:04:37.766Z,100192.06
2022-12-20T05:05:41.661Z,100184.25
2022-12-20T05:06:45.358Z,100189.44
2022-12-20T05:07:49.226Z,100187.72
2022-12-20T05:08:52.840Z,100184.25
2022-12-20T05:09:56.825Z,100182.50
2022-12-20T05:11:00.914Z,100180.75
2022-12-20T05:12:05.021Z,100170.34
2022-12-20T05:13:09.757Z,100183.38
2022-12-20T05:14:13.340Z,100182.50
2022-12-20T05:15:17.127Z,100183.41
2022-12-20T05:16:21.539Z,100184.31
2022-12-20T05:17:26.042Z,100168.69
2022-12-20T05:18:30.038Z,100173.91
2022-12-20T05:19:38.555Z,100180.78
2022-12-20T05:20:42.441Z,100178.19
2022-12-20T05:22:04.773Z,100173.81
2022-12-20T05:23:30.887Z,100165.09
2022-12-20T05:24:53.064Z,100166.88
2022-12-20T05:26:15.778Z,100174.75
2022-12-20T05:27:19.283Z,100176.50
2022-12-20T05:28:22.880Z,100176.50
2022-12-20T05:29:26.836Z,100174.81
2022-12-20T05:30:30.847Z,100183.47
2022-12-20T05:31:34.991Z,100181.72
2022-12-20T05:32:40.239Z,100173.84
2022-12-20T05:33:44.136Z,100178.22
2022-12-20T05:34:47.967Z,100180.84
2022-12-20T05:35:51.762Z,100181.72
2022-12-20T05:36:55.438Z,100185.19
2022-12-20T05:37:59.004Z,100186.03
2022-12-20T05:39:04.541Z,100187.72
2022-12-20T05:40:12.592Z,100177.28
2022-12-20T05:41:16.215Z,100180.75
2022-12-20T05:42:21.473Z,100186.00
2022-12-20T05:43:26.292Z,100185.13
2022-12-20T05:44:31.481Z,100179.91
2022-12-20T05:45:35.883Z,100185.97
2022-12-20T05:46:39.630Z,100178.16
2022-12-20T05:47:46.109Z,100167.69
2022-12-20T05:48:49.849Z,100169.53
2022-12-20T05:49:53.710Z,100171.28
2022-12-20T05:50:57.848Z,100170.41
2022-12-20T05:52:03.220Z,100180.84
2022-12-20T05:53:15.018Z,100179.94
2022-12-20T05:54:18.601Z,100185.16
2022-12-20T05:55:22.274Z,100186.91
2022-12-20T05:56:25.971Z,100185.19
2022-12-20T05:57:29.744Z,100189.53
2022-12-20T05:58:34.084Z,100189.56
2022-12-20T05:59:37.648Z,100179.19
2022-12-20T06:00:45.283Z,100186.97
2022-12-20T06:01:48.941Z,100176.56
2022-12-20T06:02:52.826Z,100174.00
2022-12-20T06:03:57.089Z,100174.03
2022-12-20T06:05:00.889Z,100179.34
2022-12-20T06:06:14.153Z,100180.19
2022-12-20T06:07:22.212Z,100182.81
2022-12-20T06:08:26.165Z,100195.06
2022-12-20T06:09:30.786Z,100180.28
2022-12-20T06:10:35.261Z,100182.84
2022-12-20T06:11:39.166Z,100174.13
2022-12-20T06:12:43.212Z,100174.97
2022-12-20T06:13:47.457Z,100163.75
2022-12-20T06:14:51.607Z,100172.50
2022-12-20T06:15:55.554Z,100173.31
2022-12-20T06:16:59.241Z,100177.69
2022-12-20T06:18:03.801Z,100179.41
2022-12-20T06:19:09.255Z,100173.34
2022-12-20T06:20:13.354Z,100167.28
2022-12-20T06:21:20.235Z,100175.16
2022-12-20T06:22:23.849Z,100171.72
2022-12-20T06:23:27.974Z,100179.53
2022-12-20T06:24:31.984Z,100184.69
2022-12-20T06:25:36.031Z,100176.88
2022-12-20T06:26:40.072Z,100182.06
2022-12-20T06:27:44.020Z,100169.09
2022-12-20T06:28:52.515Z,100174.28
2022-12-20T06:29:56.499Z,100174.25
2022-12-20T06:31:03.331Z,100167.25
2022-12-20T06:32:11.438Z,100163.78
2022-12-20T06:33:15.643Z,100165.56
2022-12-20T06:34:22.442Z,100168.13
2022-12-20T06:35:26.279Z,100154.22
2022-12-20T06:36:33.299Z,100147.31
2022-12-20T06:37:37.108Z,100152.53
2022-12-20T06:38:40.758Z,100162.09
2022-12-20T06:39:44.249Z,100162.94
2022-12-20T06:40:47.833Z,100156.81
2022-12-20T06:41:52.051Z,100153.31
2022-12-20T06:42:55.604Z,100169.84
2022-12-20T06:43:59.663Z,100158.50
2022-12-20T06:45:04.896Z,100164.59
2022-12-20T06:46:08.831Z,100159.34
2022-12-20T06:47:12.694Z,100159.38
2022-12-20T06:48:16.526Z,100166.31
2022-12-20T06:49:20.202Z,100163.66
2022-12-20T06:50:24.582Z,100167.13
2022-12-20T06:51:28.229Z,100164.47
2022-12-20T06:52:32.355Z,100167.06
2022-12-20T06:53:36.226Z,100167.09
2022-12-20T06:54:40.711Z,100172.28
2022-12-20T06:55:44.378Z,100171.38
2022-12-20T06:56:48.151Z,100173.09
2022-12-20T06:57:52.872Z,100178.31
2022-12-20T06:58:56.635Z,100172.22
2022-12-20T07:00:00.568Z,100178.25
2022-12-20T07:01:06.474Z,100161.75
2022-12-20T07:02:12.513Z,100169.56
2022-12-20T07:03:16.860Z,100166.94
2022-12-20T07:04:21.035Z,100168.66
2022-12-20T07:05:24.854Z,100171.25
2022-12-20T07:06:29.683Z,100163.44
2022-12-20T07:07:37.272Z,100162.56
2022-12-20T07:08:44.881Z,100160.84
2022-12-20T07:09:48.496Z,100165.13
2022-12-20T07:10:53.019Z,100163.38
2022-12-20T07:11:57.928Z,100157.25
2022-12-20T07:13:01.574Z,100165.03
2022-12-20T07:14:05.395Z,100159.81
2022-12-20T07:15:10.049Z,100146.72
2022-12-20T07:16:14.845Z,100154.50
2022-12-20T07:17:18.532Z,100151.00
2022-12-20T07:18:22.094Z,100155.31
2022-12-20T07:19:26.003Z,100148.31
2022-12-20T07:20:30.971Z,100150.91
2022-12-20T07:21:34.802Z,100156.97
2022-12-20T07:22:38.445Z,100157.81
2022-12-20T07:23:42.154Z,100163.00
2022-12-20T07:24:46.614Z,100158.66
2022-12-20T07:25:59.040Z,100172.53
2022-12-20T07:27:03.128Z,100167.28
2022-12-20T07:28:07.001Z,100168.13
2022-12-20T07:30:34.228Z,100160.19
2022-12-20T07:31:38.064Z,100167.13
2022-12-20T07:32:41.676Z,100165.38
2022-12-20T07:33:45.373Z,100159.25
2022-12-20T07:34:49.096Z,100157.44
2022-12-20T07:35:54.926Z,100162.63
2022-12-20T07:36:59.032Z,100159.13
2022-12-20T07:38:03.004Z,100150.34
2022-12-20T07:39:07.037Z,100154.69
2022-12-20T07:40:14.960Z,100155.53
2022-12-20T07:41:19.732Z,100155.50
2022-12-20T07:42:31.837Z,100160.69
2022-12-20T07:43:39.639Z,100166.75
2022-12-20T07:44:44.192Z,100161.47
2022-12-20T07:45:47.852Z,100164.09
2022-12-20T07:46:52.061Z,100160.56
2022-12-20T07:47:58.401Z,100158.81
2022-12-20T07:49:05.931Z,100163.09
2022-12-20T07:50:10.540Z,100163.06
2022-12-20T07:51:28.372Z,100160.44
2022-12-20T07:52:35.103Z,100159.56
2022-12-20T07:53:50.394Z,100162.06
2022-12-20T07:55:03.433Z,100157.69
2022-12-20T07:56:10.744Z,100154.13
2022-12-20T07:57:29.733Z,100154.94
2022-12-20T07:58:37.836Z,100153.19
2022-12-20T07:59:48.719Z,100151.41
2022-12-20T08:00:52.626Z,100152.25
2022-12-20T08:02:04.006Z,100145.25
2022-12-20T08:03:29.124Z,100156.50
2022-12-20T08:04:35.092Z,100159.09
2022-12-20T08:05:45.622Z,100159.91
2022-12-20T08:06:52.228Z,100152.00
2022-12-20T08:07:59.929Z,100154.56
2022-12-20T08:09:06.809Z,100156.25
2022-12-20T08:10:14.424Z,100155.31
2022-12-20T08:11:21.136Z,100156.09
2022-12-20T08:12:30.850Z,100151.66
2022-12-20T08:13:38.129Z,100155.13
2022-12-20T08:14:45.409Z,100157.66
2022-12-20T08:15:49.696Z,100150.63
2022-12-20T08:16:53.871Z,100147.97
2022-12-20T08:17:58.145Z,100148.78
2022-12-20T08:19:01.886Z,100144.34
2022-12-20T08:20:07.074Z,100146.91
2022-12-20T08:21:13.406Z,100141.63
2022-12-20T08:22:17.715Z,100140.75
2022-12-20T08:23:22.011Z,100138.91
2022-12-20T08:24:25.666Z,100139.72
2022-12-20T08:25:29.428Z,100134.41
2022-12-20T08:26:40.270Z,100143.13
2022-12-20T08:27:44.856Z,100143.97
2022-12-20T08:28:48.610Z,100138.66
2022-12-20T08:29:52.607Z,100149.94
2022-12-20T08:31:05.833Z,100141.97
2022-12-20T08:32:11.117Z,100149.81
2022-12-20T08:33:14.767Z,100143.69
2022-12-20T08:34:18.893Z,100143.66
2022-12-20T08:35:23.663Z,100141.97
2022-12-20T08:36:27.795Z,100140.19
2022-12-20T08:37:31.895Z,100138.38
2022-12-20T08:38:36.289Z,100139.25
2022-12-20T08:39:39.782Z,100141.00
2022-12-20T08:40:43.327Z,100132.28
2022-12-20T08:41:46.992Z,100134.00
2022-12-20T08:42:51.021Z,100142.78
2022-12-20T08:43:54.526Z,100134.81
2022-12-20T08:44:58.560Z,100139.19
2022-12-20T08:46:02.861Z,100140.84
2022-12-20T08:47:06.552Z,100132.13
2022-12-20T08:48:10.656Z,100133.78
2022-12-20T08:49:14.294Z,100132.94
2022-12-20T08:50:17.871Z,100130.28
2022-12-20T08:51:21.986Z,100129.41
2022-12-20T08:52:25.523Z,100131.06
2022-12-20T08:53:30.538Z,100134.47
2022-12-20T08:54:34.250Z,100130.94
2022-12-20T08:55:38.063Z,100132.63
2022-12-20T08:56:41.899Z,100124.72
2022-12-20T08:57:45.508Z,100127.25
2022-12-20T08:58:49.743Z,100128.06
2022-12-20T08:59:53.222Z,100134.41
2022-12-20T09:01:06.205Z,100125.66
2022-12-20T09:02:10.543Z,100112.59
2022-12-20T09:03:15.583Z,100123.84
2022-12-20T09:04:19.893Z,100129.00
2022-12-20T09:05:24.782Z,100118.53
2022-12-20T09:06:28.642Z,100111.63
2022-12-20T09:07:32.628Z,100116.19
2022-12-20T09:08:39.333Z,100115.28
2022-12-20T09:09:43.018Z,100120.41
2022-12-20T09:10:46.585Z,100122.81
2022-12-20T09:11:50.255Z,100134.00
2022-12-20T09:12:54.226Z,100133.06
2022-12-20T09:13:59.882Z,100136.44
2022-12-20T09:15:04.563Z,100131.13
2022-12-20T09:16:09.319Z,100129.28
2022-12-20T09:17:13.041Z,100121.31
2022-12-20T09:18:16.734Z,100113.50
2022-12-20T09:19:20.535Z,100117.72
2022-12-20T09:20:24.794Z,100114.50
2022-12-20T09:21:29.103Z,100105.72
2022-12-20T09:22:33.273Z,100119.59
2022-12-20T09:23:38.570Z,100114.34
2022-12-20T09:24:42.203Z,100113.44
2022-12-20T09:25:50.338Z,100121.31
2022-12-20T09:26:57.396Z,100119.47
2022-12-20T09:28:01.021Z,100119.28
2022-12-20T09:29:05.563Z,100116.53
2022-12-20T09:30:09.782Z,100112.03
2022-12-20T09:31:17.157Z,100117.97
2022-12-20T09:32:21.015Z,100111.66
2022-12-20T09:33:24.518Z,100102.78
2022-12-20T09:34:28.027Z,100104.41
2022-12-20T09:35:33.844Z,100109.47
2022-12-20T09:36:38.630Z,100104.88
2022-12-20T09:37:42.251Z,100104.75
2022-12-20T09:38:47.640Z,100096.72
2022-12-20T09:39:51.789Z,100094.03
2022-12-20T09:41:01.848Z,100102.59
2022-12-20T09:42:09.796Z,100091.13
2022-12-20T09:43:17.021Z,100093.66
2022-12-20T09:44:29.664Z,100089.50
2022-12-20T09:45:37.507Z,100091.00
2022-12-20T09:46:43.431Z,100095.19
2022-12-20T09:47:47.706Z,100088.09
2022-12-20T09:48:51.814Z,100095.94
2022-12-20T09:49:58.019Z,100086.16
2022-12-20T09:51:16.771Z,100081.78
2022-12-20T09:52:53.157Z,100080.09
2022-12-20T09:54:26.919Z,100075.81
2022-12-20T09:55:59.324Z,100080.00
2022-12-20T09:57:29.466Z,100069.50
2022-12-20T09:58:58.404Z,100070.25
2022-12-20T10:00:02.192Z,100082.28
2022-12-20T10:01:34.400Z,100076.25
2022-12-20T10:02:58.897Z,100069.88
2022-12-20T10:04:18.959Z,100084.69
2022-12-20T10:05:55.152Z,100075.97
2022-12-20T10:07:53.708Z,100080.16
2022-12-20T10:09:13.268Z,100088.13
2022-12-20T10:10:51.637Z,100090.59
2022-12-20T10:12:12.257Z,100088.88
2022-12-20T10:13:53.896Z,100089.56
2022-12-20T10:15:18.103Z,100089.56
2022-12-20T10:16:45.168Z,100086.19
2022-12-20T10:18:47.000Z,100085.09
2022-12-20T10:20:06.737Z,100082.59
2022-12-20T10:21:58.378Z,100086.78
2022-12-20T10:23:30.967Z,100078.19
2022-12-20T10:24:41.415Z,100077.09
2022-12-20T10:25:47.689Z,100062.19
2022-12-20T10:26:52.022Z,100066.88
2022-12-20T10:28:00.892Z,100061.59
2022-12-20T10:29:05.075Z,100062.22
2022-12-20T10:30:35.674Z,100055.13
2022-12-20T10:31:40.481Z,100056.72
2022-12-20T10:32:51.199Z,100040.88
2022-12-20T10:33:55.244Z,100036.28
2022-12-20T10:35:19.155Z,100034.66
2022-12-20T10:36:29.470Z,100033.97
2022-12-20T10:37:33.243Z,100028.72
2022-12-20T10:38:49.769Z,100021.50
2022-12-20T10:39:53.628Z,100021.38
2022-12-20T10:41:21.333Z,100016.00
2022-12-20T10:42:40.962Z,100011.25
2022-12-20T10:43:52.114Z,100001.50
2022-12-20T10:44:57.981Z,99994.59
2022-12-20T10:46:08.527Z,99994.47
2022-12-20T10:47:41.441Z,99997.03
2022-12-20T10:48:48.833Z,99993.56
2022-12-20T10:49:52.457Z,99998.69
2022-12-20T10:51:19.986Z,99982.78
2022-12-20T10:52:23.568Z,99981.41
2022-12-20T10:53:28.873Z,99983.59
2022-12-20T10:54:40.964Z,99989.16
2022-12-20T10:55:45.266Z,99983.69
2022-12-20T10:56:59.412Z,99977.16
2022-12-20T10:58:15.384Z,99975.22
2022-12-20T10:59:19.233Z,99971.81
2022-12-20T11:00:31.357Z,99972.59
2022-12-20T11:01:37.939Z,99974.25
2022-12-20T11:02:42.876Z,99976.75
2022-12-20T11:04:42.515Z,99966.09
2022-12-20T11:05:58.993Z,99977.66
2022-12-20T11:07:24.776Z,99962.00
2022-12-20T11:08:41.159Z,99968.97
2022-12-20T11:09:57.158Z,99969.56
2022-12-20T11:11:27.603Z,99972.09
2022-12-20T11:12:31.491Z,99963.72
2022-12-20T11:13:34.962Z,99968.84
2022-12-20T11:14:44.073Z,99963.41
2022-12-20T11:15:57.289Z,99970.50
2022-12-20T11:17:23.771Z,99970.56
2022-12-20T11:18:27.259Z,99968.19
2022-12-20T11:19:42.988Z,99973.50
2022-12-20T11:20:52.703Z,99972.66
2022-12-20T11:22:37.904Z,99984.13
2022-12-20T11:24:10.396Z,99986.00
2022-12-20T11:25:34.872Z,99987.72
2022-12-20T11:26:59.166Z,99973.94
2022-12-20T11:28:31.001Z,99970.22
2022-12-20T11:30:20.766Z,99959.34
2022-12-20T11:31:36.579Z,99969.19
2022-12-20T11:33:10.835Z,99976.94
2022-12-20T11:34:32.179Z,99979.38
2022-12-20T11:35:56.048Z,99982.69
2022-12-20T11:37:26.210Z,99982.69
2022-12-20T11:39:16.199Z,99973.88
2022-12-20T11:40:50.942Z,99981.72
2022-12-20T11:42:43.088Z,99970.41
2022-12-20T11:44:27.914Z,99973.09
2022-12-20T11:45:57.975Z,99975.78
2022-12-20T11:47:43.581Z,99955.75
2022-12-20T11:49:15.547Z,99959.28
2022-12-20T11:50:45.640Z,99956.66
2022-12-20T11:52:06.145Z,99945.41
2022-12-20T11:53:27.187Z,99946.41
2022-12-20T11:54:42.240Z,99942.22
2022-12-20T11:55:52.256Z,99930.81
2022-12-20T11:57:07.254Z,99923.81
2022-12-20T11:58:26.582Z,99927.31
2022-12-20T11:59:49.756Z,99932.75
2022-12-20T12:01:09.960Z,99934.41
2022-12-20T12:02:22.578Z,99939.13
2022-12-20T12:03:26.390Z,99939.19
2022-12-20T12:04:55.650Z,99926.16
2022-12-20T12:06:21.702Z,99934.84
2022-12-20T12:07:34.920Z,99939.31
2022-12-20T12:09:02.104Z,99928.88
2022-12-20T12:10:45.820Z,99927.63
2022-12-20T12:12:38.389Z,99925.00
2022-12-20T12:13:44.006Z,99931.28
2022-12-20T12:15:17.420Z,99919.91
2022-12-20T12:16:35.636Z,99919.19
2022-12-20T12:17:57.155Z,99925.28
2022-12-20T12:19:02.526Z,99928.19
2022-12-20T12:20:30.289Z,99932.25
2022-12-20T12:22:11.182Z,99928.78
2022-12-20T12:23:24.520Z,99922.66
2022-12-20T12:24:42.761Z,99926.09
2022-12-20T12:25:47.368Z,99920.78
2022-12-20T12:26:52.254Z,99930.38
2022-12-20T12:27:55.958Z,99921.56
2022-12-20T12:29:13.333Z,99926.81
2022-12-20T12:30:18.107Z,99913.69
2022-12-20T12:31:57.254Z,99917.13
2022-12-20T12:33:13.938Z,99918.72
2022-12-20T12:34:32.340Z,99920.28
2022-12-20T12:36:01.516Z,99914.06
2022-12-20T12:37:50.044Z,99912.22
2022-12-20T12:39:20.240Z,99907.78
2022-12-20T12:41:30.381Z,99907.78
2022-12-20T12:43:18.017Z,99904.47
2022-12-20T12:44:34.175Z,99901.72
2022-12-20T12:45:53.110Z,99900.88
2022-12-20T12:47:06.027Z,99895.75
2022-12-20T12:48:56.051Z,99901.78
2022-12-20T12:49:59.983Z,99906.19
2022-12-20T12:51:05.921Z,99901.75
2022-12-20T12:52:42.430Z,99908.06
2022-12-20T12:54:04.410Z,99899.28
2022-12-20T12:55:48.179Z,99895.78
2022-12-20T12:56:53.739Z,99896.66
2022-12-20T12:57:59.289Z,99904.44
2022-12-20T12:59:20.971Z,99906.25
2022-12-20T13:00:55.191Z,99917.63
2022-12-20T13:02:04.749Z,99921.16
2022-12-20T13:03:17.070Z,99922.00
2022-12-20T13:04:20.822Z,99921.16
2022-12-20T13:05:34.341Z,99920.28
2022-12-20T13:06:38.391Z,99922.88
2022-12-20T13:07:43.913Z,99923.66
2022-12-20T13:09:41.765Z,99917.50
2022-12-20T13:10:58.961Z,99915.78
2022-12-20T13:12:37.726Z,99914.13
2022-12-20T13:13:41.317Z,99910.69
2022-12-20T13:14:49.944Z,99913.28
2022-12-20T13:16:09.950Z,99917.56
2022-12-20T13:17:16.239Z,99914.03
2022-12-20T13:18:25.712Z,99907.09
2022-12-20T13:19:29.146Z,99909.69
2022-12-20T13:20:36.994Z,99913.09
2022-12-20T13:21:53.467Z,99911.31
2022-12-20T13:23:09.031Z,99902.53
2022-12-20T13:24:58.587Z,99912.16
2022-12-20T13:26:55.075Z,99901.72